Time;durP1;ratioP1;P1;durP2;ratioP2;P2;SDS_P1;SDS_P2;PMS_P1;PMS_P2;Temp;Humidity;BMP_temperature;BMP_pressure;BME280_temperature;BME280_humidity;BME280_pressure;Samples;Min_cycle;Max_cycle;Signal;HPM_P1;HPM_P2
2023/04/20 00:01:40;;;;;;;29.30;4.90;;;;;;;25.63;24.35;99896.81;108208;1251;59410;-66
2023/04/20 00:04:08;;;;;;;28.30;5.00;;;;;;;25.78;24.22;99895.48;108247;1251;75186;-65
2023/04/20 00:06:38;;;;;;;40.20;5.60;;;;;;;25.80;24.38;99891.30;108246;1256;70220;-66
2023/04/20 00:09:07;;;;;;;33.60;5.40;;;;;;;25.91;24.35;99890.46;108246;1251;72566;-67
2023/04/20 00:11:35;;;;;;;31.30;5.60;;;;;;;25.69;24.36;99890.98;108228;1251;61225;-66
2023/04/20 00:14:03;;;;;;;25.90;5.70;;;;;;;25.94;24.15;99887.12;108279;1251;60402;-66
2023/04/20 00:16:31;;;;;;;21.60;5.10;;;;;;;25.77;24.41;99888.06;108262;1251;74796;-66
2023/04/20 00:19:00;;;;;;;32.40;5.90;;;;;;;25.53;24.55;99892.28;108248;1251;69811;-66
2023/04/20 00:21:28;;;;;;;38.80;5.80;;;;;;;25.95;24.22;99887.77;108301;1252;71884;-67
2023/04/20 00:23:56;;;;;;;29.40;5.50;;;;;;;26.05;24.25;99883.80;108262;1251;60747;-66
2023/04/20 00:26:24;;;;;;;36.20;5.50;;;;;;;25.49;24.72;99886.04;108262;1251;60289;-66
2023/04/20 00:28:53;;;;;;;30.40;4.70;;;;;;;25.19;25.00;99885.05;108241;1251;73159;-66
2023/04/20 00:31:21;;;;;;;32.80;5.40;;;;;;;25.34;24.72;99880.39;108328;1251;70088;-66
2023/04/20 00:33:49;;;;;;;46.20;5.30;;;;;;;25.56;24.72;99874.80;108232;1253;73672;-65
2023/04/20 00:36:17;;;;;;;40.00;6.80;;;;;;;25.55;24.65;99872.84;108224;1251;59144;-66
2023/04/20 00:38:45;;;;;;;27.10;4.90;;;;;;;24.57;25.62;99873.63;108249;1251;61534;-65
2023/04/20 00:41:13;;;;;;;30.00;5.60;;;;;;;23.84;26.39;99873.58;108318;1255;72959;-66
2023/04/20 00:43:51;;;;;;;26.90;4.90;;;;;;;24.10;26.27;99869.66;108276;1251;69746;-67
2023/04/20 00:46:20;;;;;;;34.40;4.80;;;;;;;24.84;25.63;99868.22;108285;1251;71455;-66
2023/04/20 00:48:51;;;;;;;33.40;5.10;;;;;;;24.93;25.55;99866.47;108232;1251;60485;-65
2023/04/20 00:51:22;;;;;;;37.30;4.90;;;;;;;25.21;25.01;99863.74;108279;1251;60339;-66
2023/04/20 00:53:50;;;;;;;28.10;4.90;;;;;;;25.47;24.76;99858.23;108291;1255;71910;-66
2023/04/20 00:56:18;;;;;;;27.20;4.90;;;;;;;25.77;24.61;99851.69;108161;1258;68868;-68
2023/04/20 00:58:46;;;;;;;21.00;4.80;;;;;;;25.66;24.69;99853.59;108024;1254;175022;-67
2023/04/20 01:02:06;;;;;;;28.60;5.60;;;;;;;21.18;29.91;99861.86;104901;1291;600208;-67
2023/04/20 01:04:38;;;;;;;39.10;5.20;;;;;;;23.18;27.43;99855.14;107289;1265;60564;-66
2023/04/20 01:07:07;;;;;;;23.30;4.50;;;;;;;23.42;27.21;99853.20;107400;1267;61447;-67
2023/04/20 01:09:38;;;;;;;30.70;4.60;;;;;;;23.57;27.04;99851.27;107314;1267;71529;-65
2023/04/20 01:12:08;;;;;;;36.50;5.60;;;;;;;23.15;27.43;99850.03;107380;1269;70628;-66
2023/04/20 01:14:37;;;;;;;36.70;5.30;;;;;;;23.56;27.10;99849.53;107273;1264;167023;-67
2023/04/20 01:17:04;;;;;;;30.40;4.50;;;;;;;23.83;26.79;99847.15;107507;1262;59422;-65
2023/04/20 01:19:33;;;;;;;27.70;4.40;;;;;;;23.97;26.78;99845.11;107451;1263;61605;-67
2023/04/20 01:22:02;;;;;;;34.20;5.30;;;;;;;23.97;26.72;99841.11;107490;1263;72207;-65
2023/04/20 01:24:31;;;;;;;41.20;5.10;;;;;;;24.13;26.50;99838.64;107490;1264;71654;-66
2023/04/20 01:27:00;;;;;;;29.90;5.40;;;;;;;24.05;26.68;99838.06;107433;1268;72868;-66
2023/04/20 01:29:28;;;;;;;36.20;5.10;;;;;;;23.89;26.73;99837.79;107723;1260;61274;-66
2023/04/20 01:31:56;;;;;;;41.20;5.70;;;;;;;23.90;26.79;99835.91;107941;1257;59464;-66
2023/04/20 01:34:25;;;;;;;32.70;5.30;;;;;;;24.18;26.41;99835.89;107949;1257;73093;-66
2023/04/20 01:36:53;;;;;;;31.20;5.80;;;;;;;24.54;25.99;99834.49;107887;1258;69625;-64
2023/04/20 01:39:22;;;;;;;31.40;5.00;;;;;;;24.47;26.06;99831.23;107884;1257;73338;-67
2023/04/20 01:41:50;;;;;;;26.00;5.10;;;;;;;24.38;25.96;99832.83;107874;1257;59666;-67
2023/04/20 01:44:18;;;;;;;35.40;5.90;;;;;;;24.40;26.05;99834.70;107954;1254;61236;-67
2023/04/20 01:46:46;;;;;;;31.50;5.50;;;;;;;24.28;25.95;99833.07;107952;1254;74656;-66
2023/04/20 01:49:14;;;;;;;23.80;5.00;;;;;;;24.46;25.85;99828.75;108044;1254;69962;-65
2023/04/20 01:51:43;;;;;;;31.30;6.00;;;;;;;24.51;25.80;99831.67;108038;1254;73837;-66
2023/04/20 01:54:11;;;;;;;36.40;6.30;;;;;;;24.65;25.79;99822.59;107897;1254;61248;-66
2023/04/20 01:56:39;;;;;;;27.10;5.10;;;;;;;24.14;26.17;99822.79;108066;1258;61521;-66
2023/04/20 01:59:08;;;;;;;27.30;5.00;;;;;;;24.08;26.40;99818.52;108021;1255;72028;-66
2023/04/20 02:01:36;;;;;;;28.50;4.60;;;;;;;24.02;26.32;99814.66;107811;1257;69694;-66
2023/04/20 02:04:04;;;;;;;29.80;5.50;;;;;;;24.58;25.80;99809.84;107794;1256;73763;-66
2023/04/20 02:06:32;;;;;;;29.00;5.70;;;;;;;24.57;25.74;99808.65;107954;1257;60450;-67
2023/04/20 02:09:00;;;;;;;30.30;4.90;;;;;;;24.50;25.84;99813.52;107890;1260;59483;-66
2023/04/20 02:11:29;;;;;;;33.20;4.70;;;;;;;24.82;25.48;99813.91;107892;1257;73343;-67
2023/04/20 02:13:58;;;;;;;33.10;5.40;;;;;;;24.88;25.38;99810.02;107936;1257;69616;-67
2023/04/20 02:16:28;;;;;;;28.70;5.30;;;;;;;25.24;25.15;99810.00;107813;1257;73158;-67
2023/04/20 02:18:58;;;;;;;29.00;4.70;;;;;;;25.29;25.05;99808.38;107762;1261;61667;-67
2023/04/20 02:21:26;;;;;;;33.10;4.90;;;;;;;25.12;25.07;99809.38;107924;1257;61562;-67
2023/04/20 02:23:54;;;;;;;26.70;5.30;;;;;;;25.04;25.05;99805.00;107918;1257;71934;-66
2023/04/20 02:26:22;;;;;;;19.60;4.70;;;;;;;25.22;25.03;99803.37;107777;1257;71654;-66
2023/04/20 02:28:50;;;;;;;31.00;5.50;;;;;;;25.17;24.91;99799.55;107921;1259;71952;-67
2023/04/20 02:31:20;;;;;;;29.50;5.50;;;;;;;24.99;25.05;99799.29;107940;1257;60316;-66
2023/04/20 02:33:48;;;;;;;26.30;5.40;;;;;;;24.72;25.44;99798.55;107771;1257;59644;-66
2023/04/20 02:36:17;;;;;;;29.20;5.70;;;;;;;24.10;26.13;99798.84;107820;1257;74103;-66
2023/04/20 02:38:45;;;;;;;26.30;4.70;;;;;;;24.36;26.01;99795.35;107964;1257;69486;-66
2023/04/20 02:41:13;;;;;;;28.40;5.50;;;;;;;24.42;25.69;99790.98;107822;1256;72767;-68
2023/04/20 02:43:41;;;;;;;27.70;5.00;;;;;;;24.50;25.63;99790.75;107906;1257;61291;-66
2023/04/20 02:46:11;;;;;;;20.80;4.50;;;;;;;23.96;26.06;99787.70;107780;1257;59650;-65
2023/04/20 02:48:39;;;;;;;34.60;4.50;;;;;;;23.96;26.06;99787.49;107762;1256;72604;-66
2023/04/20 02:51:08;;;;;;;25.90;5.00;;;;;;;24.25;25.73;99787.13;107919;1257;69140;-67
2023/04/20 02:53:41;;;;;;;17.90;4.30;;;;;;;24.40;25.48;99785.26;107766;1257;73006;-67
2023/04/20 02:56:20;;;;;;;34.10;5.10;;;;;;;24.59;25.23;99784.77;107954;1257;60358;-66
2023/04/20 02:58:54;;;;;;;30.20;5.00;;;;;;;24.52;25.37;99787.44;107766;1260;59089;-66
2023/04/20 03:01:26;;;;;;;30.70;5.20;;;;;;;24.44;25.31;99792.37;107983;1257;72034;-65
2023/04/20 03:04:09;;;;;;;21.90;5.60;;;;;;;24.61;25.10;99794.29;107983;1257;71959;-65
2023/04/20 03:06:42;;;;;;;26.50;5.50;;;;;;;24.66;24.95;99794.70;108016;1257;72629;-65
2023/04/20 03:09:13;;;;;;;25.40;5.30;;;;;;;24.62;25.00;99792.55;107851;1256;59869;-66
2023/04/20 03:11:54;;;;;;;33.60;5.20;;;;;;;24.71;24.95;99791.61;108023;1257;60145;-67
2023/04/20 03:14:49;;;;;;;27.20;5.20;;;;;;;24.80;24.83;99791.48;107800;1257;72334;-65
2023/04/20 03:17:20;;;;;;;25.60;4.50;;;;;;;24.77;24.89;99792.83;108061;1258;70679;-67
2023/04/20 03:19:49;;;;;;;28.60;5.20;;;;;;;25.00;24.67;99794.45;107983;1257;71974;-66
2023/04/20 03:22:20;;;;;;;29.30;4.70;;;;;;;24.96;24.76;99789.81;107890;1257;60321;-68
2023/04/20 03:24:51;;;;;;;19.10;5.00;;;;;;;24.86;24.78;99785.47;108053;1257;60382;-65
2023/04/20 03:27:38;;;;;;;26.90;5.40;;;;;;;25.12;24.62;99786.25;108022;1255;72556;-67
2023/04/20 03:30:10;;;;;;;26.80;5.00;;;;;;;25.25;24.43;99785.05;107796;1257;71246;-66
2023/04/20 03:32:40;;;;;;;21.50;5.30;;;;;;;25.12;24.56;99791.96;107773;1256;72908;-67
2023/04/20 03:35:09;;;;;;;22.10;4.30;;;;;;;25.26;24.65;99785.10;107940;1255;60434;-65
2023/04/20 03:37:37;;;;;;;17.40;4.70;;;;;;;25.24;24.54;99788.60;108039;1257;61908;-67
2023/04/20 03:40:08;;;;;;;22.20;4.80;;;;;;;25.20;24.68;99782.54;107931;1256;74327;-67
2023/04/20 03:42:37;;;;;;;33.30;4.60;;;;;;;25.20;24.67;99791.10;108038;1256;70774;-67
2023/04/20 03:45:06;;;;;;;28.50;4.30;;;;;;;25.10;24.81;99787.52;107872;1257;73562;-67
2023/04/20 03:47:35;;;;;;;28.70;5.30;;;;;;;25.16;24.85;99785.81;107988;1255;61249;-67
2023/04/20 03:50:03;;;;;;;22.60;5.10;;;;;;;25.14;24.84;99786.53;108037;1256;59519;-66
2023/04/20 03:52:32;;;;;;;27.90;4.80;;;;;;;25.32;24.74;99788.42;107891;1256;73224;-66
2023/04/20 03:55:01;;;;;;;22.40;4.70;;;;;;;25.03;25.04;99789.09;107968;1257;69651;-67
2023/04/20 03:57:29;;;;;;;25.00;4.40;;;;;;;25.44;24.81;99782.38;108195;1252;73910;-66
2023/04/20 03:59:57;;;;;;;32.60;5.20;;;;;;;25.61;24.85;99783.21;108061;1252;61333;-68
2023/04/20 04:02:27;;;;;;;30.70;4.80;;;;;;;25.77;24.87;99784.64;108241;1254;61211;-68
2023/04/20 04:04:55;;;;;;;21.20;4.60;;;;;;;25.46;25.41;99786.04;108103;1253;73785;-66
2023/04/20 04:07:24;;;;;;;32.50;5.40;;;;;;;25.32;25.92;99788.13;107929;1260;70459;-67
2023/04/20 04:09:52;;;;;;;19.90;4.60;;;;;;;25.83;25.63;99789.02;108110;1254;71695;-68
2023/04/20 04:12:20;;;;;;;29.70;5.00;;;;;;;25.50;26.09;99786.36;108027;1254;60333;-66
2023/04/20 04:14:48;;;;;;;22.50;5.60;;;;;;;24.77;26.96;99786.77;108128;1253;60074;-67
2023/04/20 04:17:17;;;;;;;23.60;4.50;;;;;;;24.91;27.07;99783.88;108022;1258;74290;-67
2023/04/20 04:19:45;;;;;;;18.30;6.30;;;;;;;25.17;26.87;99785.18;107911;1253;70752;-66
2023/04/20 04:22:14;;;;;;;29.30;5.40;;;;;;;25.39;26.80;99783.95;108150;1253;72192;-66
2023/04/20 04:24:53;;;;;;;23.50;4.70;;;;;;;25.26;26.86;99785.30;107980;1253;60954;-68
2023/04/20 04:27:21;;;;;;;31.20;6.00;;;;;;;25.15;27.11;99785.16;108050;1256;60386;-67
2023/04/20 04:29:55;;;;;;;15.90;4.80;;;;;;;25.06;27.35;99785.05;108179;1256;72450;-67
2023/04/20 04:32:23;;;;;;;22.70;4.60;;;;;;;25.18;27.48;99782.33;108049;1253;71561;-67
2023/04/20 04:34:52;;;;;;;33.70;5.50;;;;;;;25.13;27.56;99787.54;108066;1253;73623;-67
2023/04/20 04:37:20;;;;;;;26.80;5.10;;;;;;;25.34;27.54;99782.15;108103;1259;62259;-68
2023/04/20 04:39:51;;;;;;;19.30;4.80;;;;;;;25.34;27.60;99784.85;108109;1254;60966;-66
2023/04/20 04:42:23;;;;;;;22.80;5.90;;;;;;;25.18;27.77;99787.70;108245;1253;72145;-67
2023/04/20 04:44:52;;;;;;;27.80;6.20;;;;;;;25.39;27.85;99786.85;108066;1254;69730;-67
2023/04/20 04:47:28;;;;;;;22.30;6.60;;;;;;;25.16;28.19;99790.98;108194;1256;73933;-67
2023/04/20 04:49:59;;;;;;;21.70;5.80;;;;;;;24.84;28.58;99790.35;108121;1254;62178;-67
2023/04/20 04:52:29;;;;;;;22.30;7.30;;;;;;;24.79;28.86;99793.59;108299;1253;61268;-67
2023/04/20 04:54:58;;;;;;;28.20;6.40;;;;;;;24.96;28.87;99793.58;108233;1254;73466;-67
2023/04/20 04:57:26;;;;;;;22.60;6.30;;;;;;;25.12;28.87;99791.65;108216;1256;68805;-67
2023/04/20 04:59:54;;;;;;;28.70;6.90;;;;;;;25.39;28.79;99792.02;108257;1253;73532;-68
2023/04/20 05:02:22;;;;;;;25.90;6.60;;;;;;;25.68;28.74;99792.77;108211;1254;62977;-67
2023/04/20 05:04:53;;;;;;;25.50;5.50;;;;;;;25.65;28.93;99792.61;108211;1252;59982;-67
2023/04/20 05:07:21;;;;;;;;;;;;;;;25.60;29.01;99796.70;108225;1254;73981;-67
2023/04/20 05:09:50;;;;;;;24.70;5.60;;;;;;;25.55;29.24;99790.51;108183;1254;70207;-67
2023/04/20 05:12:18;;;;;;;25.40;5.40;;;;;;;25.60;29.38;99793.77;108132;1254;72248;-67
2023/04/20 05:14:46;;;;;;;25.80;5.40;;;;;;;25.56;29.79;99790.95;108112;1252;62846;-67
2023/04/20 05:17:14;;;;;;;39.90;5.80;;;;;;;25.59;29.69;99787.75;108228;1253;61265;-67
2023/04/20 05:19:42;;;;;;;38.90;6.10;;;;;;;25.54;29.84;99783.42;108170;1253;73712;-67
2023/04/20 05:22:10;;;;;;;25.00;5.00;;;;;;;25.39;30.12;99786.16;108219;1253;69847;-67
2023/04/20 05:24:38;;;;;;;25.20;5.70;;;;;;;25.28;30.44;99788.74;108102;1254;73859;-68
2023/04/20 05:27:07;;;;;;;29.90;6.20;;;;;;;25.22;30.53;99792.04;108087;1254;61535;-68
2023/04/20 05:29:37;;;;;;;29.90;5.90;;;;;;;25.04;30.85;99797.80;108277;1254;60754;-67
2023/04/20 05:32:05;;;;;;;35.30;5.50;;;;;;;25.05;30.99;99785.31;108330;1256;73913;-68
2023/04/20 05:34:34;;;;;;;22.20;5.00;;;;;;;24.87;31.49;99781.19;108311;1253;70225;-67
2023/04/20 05:37:04;;;;;;;26.10;5.00;;;;;;;24.97;31.56;99785.98;108295;1254;72234;-67
2023/04/20 05:39:35;;;;;;;27.20;5.70;;;;;;;24.90;31.59;99788.05;108349;1254;62779;-67
2023/04/20 05:42:03;;;;;;;26.60;5.90;;;;;;;24.79;32.03;99789.00;108253;1253;60589;-67
2023/04/20 05:44:32;;;;;;;33.70;5.70;;;;;;;24.87;32.05;99790.58;108292;1254;74597;-66
2023/04/20 05:47:05;;;;;;;35.30;6.10;;;;;;;24.89;32.04;99788.90;108284;1253;69824;-68
2023/04/20 05:49:36;;;;;;;29.80;5.50;;;;;;;24.96;31.90;99787.11;108236;1252;73821;-67
2023/04/20 05:52:04;;;;;;;;;;;;;;;24.95;32.21;99787.78;108073;1254;63283;-66
2023/04/20 05:54:32;;;;;;;26.00;4.80;;;;;;;24.88;32.29;99789.03;108258;1256;60493;-67
2023/04/20 05:57:00;;;;;;;30.90;6.30;;;;;;;24.91;32.46;99788.76;108194;1254;73832;-66
2023/04/20 05:59:28;;;;;;;37.50;7.70;;;;;;;24.95;32.39;99793.74;108228;1253;69639;-66
2023/04/20 06:01:56;;;;;;;27.70;5.50;;;;;;;24.56;33.03;99791.38;108272;1253;72865;-67
2023/04/20 06:04:24;;;;;;;22.20;5.10;;;;;;;24.56;32.99;99790.61;108242;1252;62154;-67
2023/04/20 06:06:53;;;;;;;26.50;6.30;;;;;;;24.52;33.08;99788.20;108318;1253;60299;-66
2023/04/20 06:09:21;;;;;;;32.00;6.30;;;;;;;24.60;33.01;99795.64;108238;1252;72723;-67
2023/04/20 06:11:49;;;;;;;37.20;6.00;;;;;;;24.98;32.48;99788.55;108270;1253;69552;-67
2023/04/20 06:14:17;;;;;;;24.60;4.90;;;;;;;24.96;32.58;99796.61;108247;1252;72282;-67
2023/04/20 06:16:45;;;;;;;30.20;6.20;;;;;;;24.71;32.99;99795.23;108264;1254;61464;-67
2023/04/20 06:19:13;;;;;;;32.80;6.70;;;;;;;24.68;33.13;99790.84;108246;1254;60149;-66
2023/04/20 06:21:41;;;;;;;25.60;6.00;;;;;;;24.94;33.05;99789.35;108205;1254;74831;-67
2023/04/20 06:24:09;;;;;;;36.30;6.20;;;;;;;25.09;32.85;99780.73;108196;1254;71609;-67
2023/04/20 06:26:37;;;;;;;27.20;5.70;;;;;;;25.38;32.67;99776.68;108221;1254;73691;-67
2023/04/20 06:29:08;;;;;;;30.90;6.60;;;;;;;25.77;32.18;99773.61;108177;1253;62505;-67
2023/04/20 06:31:36;;;;;;;27.00;6.40;;;;;;;26.10;31.83;99770.86;108211;1253;60141;-66
2023/04/20 06:34:04;;;;;;;20.20;5.80;;;;;;;25.80;31.85;99770.69;108251;1252;74645;-67
2023/04/20 06:36:32;;;;;;;26.60;5.90;;;;;;;25.89;31.83;99774.13;108239;1254;69401;-67
2023/04/20 06:39:00;;;;;;;33.50;7.00;;;;;;;26.27;31.48;99768.39;108030;1253;73540;-67
2023/04/20 06:41:28;;;;;;;34.70;7.20;;;;;;;26.39;31.24;99767.01;108114;1254;63262;-67
2023/04/20 06:43:56;;;;;;;35.60;7.30;;;;;;;26.53;30.60;99759.17;108182;1252;61634;-66
2023/04/20 06:46:24;;;;;;;26.70;7.50;;;;;;;26.60;30.51;99756.41;108313;1254;75118;-66
2023/04/20 06:48:53;;;;;;;32.80;6.40;;;;;;;26.37;30.81;99753.58;108172;1254;71442;-68
2023/04/20 06:51:21;;;;;;;30.30;6.00;;;;;;;26.18;30.82;99753.80;108270;1252;73605;-65
2023/04/20 06:53:49;;;;;;;25.10;5.10;;;;;;;26.49;30.71;99756.80;108239;1254;62912;-67
2023/04/20 06:56:17;;;;;;;27.00;6.00;;;;;;;26.50;30.47;99756.84;108271;1253;59317;-67
2023/04/20 06:58:45;;;;;;;27.60;5.30;;;;;;;26.40;30.63;99755.20;108262;1254;73421;-67
2023/04/20 07:01:14;;;;;;;23.80;5.00;;;;;;;26.39;30.26;99753.31;108346;1254;69482;-67
2023/04/20 07:03:42;;;;;;;31.80;6.00;;;;;;;26.56;29.88;99751.34;108119;1253;73520;-67
2023/04/20 07:06:11;;;;;;;27.80;5.40;;;;;;;26.45;30.08;99752.11;108180;1253;63251;-67
2023/04/20 07:08:39;;;;;;;36.00;5.90;;;;;;;26.48;29.94;99744.08;108059;1254;60294;-67
2023/04/20 07:11:07;;;;;;;29.90;5.50;;;;;;;26.52;29.81;99740.08;108233;1254;74232;-70
2023/04/20 07:13:35;;;;;;;36.00;5.60;;;;;;;26.73;29.32;99740.98;108107;1254;68744;-67
2023/04/20 07:16:03;;;;;;;32.70;5.50;;;;;;;26.57;29.24;99742.52;108281;1253;73500;-66
2023/04/20 07:18:31;;;;;;;38.80;6.00;;;;;;;26.26;29.52;99732.63;108312;1253;62023;-67
2023/04/20 07:21:04;;;;;;;33.20;5.00;;;;;;;26.07;29.58;99729.27;108356;1252;60450;-68
2023/04/20 07:23:32;;;;;;;40.40;7.20;;;;;;;26.27;29.50;99735.46;108331;1254;74852;-67
2023/04/20 07:26:00;;;;;;;26.10;5.00;;;;;;;26.15;29.64;99733.96;108317;1253;69478;-67
2023/04/20 07:28:28;;;;;;;24.70;5.80;;;;;;;26.04;29.51;99729.91;108221;1252;72869;-67
2023/04/20 07:30:58;;;;;;;31.00;6.10;;;;;;;26.23;29.15;99730.76;108235;1253;61160;-66
2023/04/20 07:33:28;;;;;;;34.10;5.60;;;;;;;26.05;29.16;99734.35;108298;1253;60588;-67
2023/04/20 07:35:59;;;;;;;31.90;5.20;;;;;;;26.37;29.03;99737.53;108302;1253;73795;-67
2023/04/20 07:38:27;;;;;;;23.40;4.30;;;;;;;26.30;29.08;99737.88;108140;1252;68404;-66
2023/04/20 07:40:55;;;;;;;25.50;5.70;;;;;;;26.56;28.68;99738.01;108253;1253;72835;-67
2023/04/20 07:43:23;;;;;;;35.60;5.60;;;;;;;26.46;28.77;99739.04;108191;1254;63575;-67
2023/04/20 07:45:52;;;;;;;38.20;6.10;;;;;;;26.49;28.93;99740.02;108208;1252;60328;-67
2023/04/20 07:48:20;;;;;;;36.30;5.50;;;;;;;25.95;29.79;99741.20;108365;1254;74394;-67
2023/04/20 07:50:48;;;;;;;35.70;5.50;;;;;;;26.16;29.82;99740.87;108311;1254;69263;-67
2023/04/20 07:53:16;;;;;;;28.00;5.10;;;;;;;26.16;30.09;99741.64;108285;1254;73195;-66
2023/04/20 07:55:44;;;;;;;32.00;5.90;;;;;;;26.22;30.01;99738.14;108272;1252;63235;-68
2023/04/20 07:58:13;;;;;;;25.90;5.30;;;;;;;25.83;30.45;99735.96;108271;1252;61550;-67
2023/04/20 08:00:41;;;;;;;37.60;6.30;;;;;;;26.16;30.37;99735.01;108313;1254;72722;-67
2023/04/20 08:03:09;;;;;;;31.30;6.80;;;;;;;26.34;30.10;99735.73;108252;1254;70451;-68
2023/04/20 08:05:37;;;;;;;35.60;5.90;;;;;;;26.19;30.54;99739.16;108266;1253;72669;-67
2023/04/20 08:08:06;;;;;;;31.40;5.90;;;;;;;26.07;30.82;99735.73;108249;1252;61667;-67
2023/04/20 08:10:34;;;;;;;35.70;7.30;;;;;;;26.27;30.79;99743.18;108307;1253;61138;-67
2023/04/20 08:13:03;;;;;;;39.40;6.20;;;;;;;26.30;30.91;99744.66;108289;1253;74695;-67
2023/04/20 08:15:31;;;;;;;33.20;5.50;;;;;;;26.32;30.92;99747.98;108231;1253;69935;-67
2023/04/20 08:18:00;;;;;;;24.70;5.60;;;;;;;26.43;30.66;99742.08;108267;1253;73188;-67
2023/04/20 08:20:28;;;;;;;34.10;6.00;;;;;;;26.65;30.85;99746.71;108128;1254;62213;-67
2023/04/20 08:22:56;;;;;;;32.00;6.20;;;;;;;26.36;31.23;99748.33;108181;1253;60303;-67
2023/04/20 08:25:24;;;;;;;36.10;6.20;;;;;;;26.54;31.15;99746.67;108102;1257;74782;-67
2023/04/20 08:27:54;;;;;;;35.00;6.00;;;;;;;26.27;31.40;99749.23;108234;1254;68471;-67
2023/04/20 08:30:23;;;;;;;30.90;5.70;;;;;;;26.23;31.46;99745.71;108273;1254;73379;-67
2023/04/20 08:32:51;;;;;;;38.60;7.00;;;;;;;25.94;32.23;99745.92;108223;1252;62506;-68
2023/04/20 08:35:19;;;;;;;33.60;6.00;;;;;;;25.91;32.37;99740.21;108228;1252;60377;-67
2023/04/20 08:37:47;;;;;;;29.00;7.80;;;;;;;25.82;32.42;99744.77;108281;1254;73606;-67
2023/04/20 08:40:16;;;;;;;35.10;6.80;;;;;;;26.16;32.20;99748.50;108209;1254;71314;-67
2023/04/20 08:42:45;;;;;;;35.90;7.00;;;;;;;25.82;32.66;99750.85;108187;1253;72562;-66
2023/04/20 08:45:13;;;;;;;32.60;6.70;;;;;;;25.71;32.88;99755.17;108223;1253;61063;-66
2023/04/20 08:47:41;;;;;;;34.20;6.30;;;;;;;25.87;32.59;99754.25;108221;1256;61596;-67
2023/04/20 08:50:09;;;;;;;28.00;5.60;;;;;;;25.61;32.90;99761.88;108218;1253;73840;-67
2023/04/20 08:52:38;;;;;;;36.10;6.60;;;;;;;25.58;32.79;99758.54;108251;1256;71637;-67
2023/04/20 08:55:07;;;;;;;32.90;6.10;;;;;;;25.41;32.92;99765.10;108048;1252;73175;-66
2023/04/20 08:57:36;;;;;;;27.10;6.20;;;;;;;25.55;32.89;99762.52;108106;1254;62475;-67
2023/04/20 09:00:07;;;;;;;26.10;4.80;;;;;;;25.27;33.52;99764.10;108109;1254;60361;-67
2023/04/20 09:02:48;;;;;;;29.40;5.80;;;;;;;25.52;33.23;99761.43;108151;1254;74763;-67
2023/04/20 09:05:27;;;;;;;21.10;5.70;;;;;;;25.26;33.53;99763.39;108152;1256;71357;-66
2023/04/20 09:07:57;;;;;;;25.80;5.40;;;;;;;25.39;33.30;99765.83;108054;1259;73851;-67
2023/04/20 09:10:26;;;;;;;24.50;5.50;;;;;;;26.02;32.41;99762.39;108201;1252;63066;-67
2023/04/20 09:12:54;;;;;;;23.80;4.90;;;;;;;25.94;32.38;99763.75;108061;1252;60313;-67
2023/04/20 09:15:29;;;;;;;23.50;5.10;;;;;;;25.51;32.90;99768.03;108063;1254;74947;-68
2023/04/20 09:17:57;;;;;;;26.80;4.80;;;;;;;24.42;34.44;99766.61;108176;1254;70849;-68
2023/04/20 09:20:27;;;;;;;21.20;4.60;;;;;;;24.05;34.78;99765.06;108170;1254;72195;-67
2023/04/20 09:22:56;;;;;;;24.30;5.30;;;;;;;25.11;33.53;99765.80;108202;1253;61231;-67
2023/04/20 09:25:26;;;;;;;23.00;4.40;;;;;;;24.54;34.34;99762.02;108258;1253;60539;-67
2023/04/20 09:28:00;;;;;;;31.30;6.10;;;;;;;24.42;34.37;99757.64;108216;1256;74678;-66
2023/04/20 09:30:47;;;;;;;36.90;5.60;;;;;;;24.78;33.90;99756.63;108331;1252;71548;-67
2023/04/20 09:33:18;;;;;;;23.30;4.50;;;;;;;25.02;33.89;99752.08;108335;1253;73670;-66
2023/04/20 09:35:51;;;;;;;21.70;5.10;;;;;;;25.26;33.52;99750.42;108260;1254;61666;-67
2023/04/20 09:38:25;;;;;;;35.00;5.00;;;;;;;25.61;32.93;99745.20;108256;1253;60596;-67
2023/04/20 09:40:54;;;;;;;28.70;4.50;;;;;;;25.77;32.71;99743.81;108211;1254;75006;-67
2023/04/20 09:43:22;;;;;;;29.00;5.30;;;;;;;25.78;32.14;99742.83;108085;1252;69480;-67
2023/04/20 09:45:50;;;;;;;21.80;4.60;;;;;;;25.75;32.22;99743.86;108213;1254;72221;-67
2023/04/20 09:48:19;;;;;;;23.00;4.90;;;;;;;26.02;32.07;99742.94;107974;1254;61059;-67
2023/04/20 09:50:47;;;;;;;28.60;4.90;;;;;;;26.13;31.15;99744.13;108211;1253;60361;-67
2023/04/20 09:53:22;;;;;;;25.70;4.80;;;;;;;26.26;30.90;99748.29;108222;1253;74799;-67
2023/04/20 09:55:53;;;;;;;26.00;4.90;;;;;;;26.29;30.73;99749.23;108253;1254;70285;-67
2023/04/20 09:58:21;;;;;;;23.10;4.70;;;;;;;26.22;30.53;99748.33;108230;1252;71358;-67
2023/04/20 10:00:49;;;;;;;31.60;5.40;;;;;;;26.06;30.30;99747.60;108267;1254;63331;-67
2023/04/20 10:03:18;;;;;;;24.50;4.70;;;;;;;26.34;30.54;99754.25;108229;1254;60322;-66
2023/04/20 10:05:47;;;;;;;26.70;5.30;;;;;;;26.50;30.37;99753.42;108172;1254;71778;-67
2023/04/20 10:08:15;;;;;;;27.90;4.90;;;;;;;26.46;30.41;99749.33;108261;1254;70330;-67
2023/04/20 10:10:48;;;;;;;26.90;5.00;;;;;;;26.28;30.73;99751.14;108045;1257;73674;-67
2023/04/20 10:13:22;;;;;;;20.90;4.70;;;;;;;26.92;30.25;99749.13;108341;1252;61982;-67
2023/04/20 10:15:50;;;;;;;34.00;4.90;;;;;;;27.19;29.96;99744.67;108119;1253;60751;-67
2023/04/20 10:18:22;;;;;;;36.20;5.80;;;;;;;27.27;30.05;99742.36;108317;1254;75029;-67
2023/04/20 10:20:52;;;;;;;22.20;5.40;;;;;;;27.30;30.12;99739.10;108291;1254;71341;-65
2023/04/20 10:23:20;;;;;;;18.20;4.90;;;;;;;27.65;29.54;99741.30;108292;1253;73831;-67
2023/04/20 10:25:57;;;;;;;28.70;4.50;;;;;;;27.58;29.53;99750.73;108223;1252;62967;-67
2023/04/20 10:28:37;;;;;;;28.90;5.30;;;;;;;27.85;29.48;99747.45;108123;1254;60695;-67
2023/04/20 10:31:06;;;;;;;26.30;4.60;;;;;;;27.85;29.62;99750.88;108092;1253;73833;-67
2023/04/20 10:33:35;;;;;;;22.30;4.50;;;;;;;27.51;30.19;99747.14;108270;1254;69523;-67
2023/04/20 10:36:03;;;;;;;18.50;4.30;;;;;;;27.06;30.61;99754.35;108024;1254;75298;-67
2023/04/20 10:38:32;;;;;;;33.70;5.10;;;;;;;27.12;30.20;99756.94;108032;1252;62950;-67
2023/04/20 10:41:10;;;;;;;24.90;4.40;;;;;;;27.21;29.94;99758.83;108283;1254;60487;-67
2023/04/20 10:43:42;;;;;;;29.50;4.40;;;;;;;26.36;31.27;99763.90;108305;1253;74346;-67
2023/04/20 10:46:21;;;;;;;31.20;5.70;;;;;;;27.07;30.10;99758.00;108229;1254;71541;-67
2023/04/20 10:48:52;;;;;;;25.30;5.20;;;;;;;27.16;29.88;99763.36;108264;1254;71262;-67
2023/04/20 10:51:20;;;;;;;27.40;5.20;;;;;;;26.59;30.54;99768.06;108279;1254;61323;-66
2023/04/20 10:54:03;;;;;;;25.60;4.40;;;;;;;27.32;29.80;99768.96;108223;1254;60370;-67
2023/04/20 10:56:37;;;;;;;24.00;5.30;;;;;;;27.40;29.10;99764.14;108218;1253;75249;-68
2023/04/20 10:59:10;;;;;;;27.70;4.20;;;;;;;26.82;29.79;99767.16;108220;1254;68442;-66
2023/04/20 11:01:39;;;;;;;22.30;4.80;;;;;;;26.84;29.89;99762.42;108246;1254;73972;-66
2023/04/20 11:04:09;;;;;;;28.80;4.10;;;;;;;27.08;29.62;99769.92;108229;1252;61739;-66
2023/04/20 11:06:39;;;;;;;23.20;4.80;;;;;;;27.17;29.45;99768.50;108399;1253;60438;-67
2023/04/20 11:09:25;;;;;;;27.60;4.80;;;;;;;26.42;30.31;99770.48;108327;1254;73831;-68
2023/04/20 11:12:06;;;;;;;24.90;5.30;;;;;;;26.74;30.04;99769.64;108239;1254;70160;-66
2023/04/20 11:14:39;;;;;;;24.30;5.70;;;;;;;26.78;30.09;99773.17;108323;1253;70794;-67
2023/04/20 11:17:07;;;;;;;19.90;4.40;;;;;;;26.85;29.91;99775.44;108233;1253;61042;-67
2023/04/20 11:19:35;;;;;;;26.80;4.70;;;;;;;27.02;29.61;99775.34;108263;1254;61563;-68
2023/04/20 11:22:05;;;;;;;30.50;5.10;;;;;;;27.00;29.19;99777.27;108128;1253;72193;-67
2023/04/20 11:24:36;;;;;;;23.20;4.90;;;;;;;26.91;29.22;99775.87;108296;1254;68192;-67
2023/04/20 11:27:04;;;;;;;21.90;5.10;;;;;;;26.38;29.14;99776.11;108275;1253;71985;-68
2023/04/20 11:29:37;;;;;;;;;;;;;;;26.66;29.08;99774.91;108394;1253;63643;-66